sensor_id;sensor_type;location;lat;lon;timestamp;temperature;humidity
298;DHT22;133;49.626;9.680;2023-11-22T00:01:05;6.70;86.00
298;DHT22;133;49.626;9.680;2023-11-22T00:03:34;6.70;85.70
298;DHT22;133;49.626;9.680;2023-11-22T00:05:59;6.70;86.10
298;DHT22;133;49.626;9.680;2023-11-22T00:08:26;6.60;86.10
298;DHT22;133;49.626;9.680;2023-11-22T00:10:52;6.60;85.80
298;DHT22;133;49.626;9.680;2023-11-22T00:13:17;6.60;86.40
298;DHT22;133;49.626;9.680;2023-11-22T00:15:43;6.60;86.50
298;DHT22;133;49.626;9.680;2023-11-22T00:18:09;6.60;86.40
298;DHT22;133;49.626;9.680;2023-11-22T00:20:34;6.50;86.40
298;DHT22;133;49.626;9.680;2023-11-22T00:23:00;6.40;86.40
298;DHT22;133;49.626;9.680;2023-11-22T00:25:26;6.50;86.70
298;DHT22;133;49.626;9.680;2023-11-22T00:27:51;6.40;86.80
298;DHT22;133;49.626;9.680;2023-11-22T00:30:17;6.40;86.90
298;DHT22;133;49.626;9.680;2023-11-22T00:32:42;6.30;86.00
298;DHT22;133;49.626;9.680;2023-11-22T00:35:08;6.30;86.80
298;DHT22;133;49.626;9.680;2023-11-22T00:37:34;6.20;86.80
298;DHT22;133;49.626;9.680;2023-11-22T00:40:03;6.30;87.00
298;DHT22;133;49.626;9.680;2023-11-22T00:42:37;6.40;86.80
298;DHT22;133;49.626;9.680;2023-11-22T00:45:05;6.20;87.50
298;DHT22;133;49.626;9.680;2023-11-22T00:47:32;6.00;89.30
298;DHT22;133;49.626;9.680;2023-11-22T00:49:58;5.80;90.30
298;DHT22;133;49.626;9.680;2023-11-22T00:52:24;5.80;91.40
298;DHT22;133;49.626;9.680;2023-11-22T00:54:49;5.70;92.30
298;DHT22;133;49.626;9.680;2023-11-22T00:57:15;5.60;92.20
298;DHT22;133;49.626;9.680;2023-11-22T00:59:41;5.60;92.40
298;DHT22;133;49.626;9.680;2023-11-22T01:02:06;5.40;92.70
298;DHT22;133;49.626;9.680;2023-11-22T01:04:34;5.40;93.10
298;DHT22;133;49.626;9.680;2023-11-22T01:07:01;5.50;93.00
298;DHT22;133;49.626;9.680;2023-11-22T01:09:27;5.40;93.00
298;DHT22;133;49.626;9.680;2023-11-22T01:11:54;5.40;93.00
298;DHT22;133;49.626;9.680;2023-11-22T01:14:19;5.40;92.10
298;DHT22;133;49.626;9.680;2023-11-22T01:16:45;5.40;92.70
298;DHT22;133;49.626;9.680;2023-11-22T01:19:11;5.40;93.00
298;DHT22;133;49.626;9.680;2023-11-22T01:21:36;5.50;92.90
298;DHT22;133;49.626;9.680;2023-11-22T01:24:02;5.50;92.50
298;DHT22;133;49.626;9.680;2023-11-22T01:26:28;5.40;92.30
298;DHT22;133;49.626;9.680;2023-11-22T01:28:53;5.40;92.30
298;DHT22;133;49.626;9.680;2023-11-22T01:31:19;5.30;92.60
298;DHT22;133;49.626;9.680;2023-11-22T01:33:48;5.40;92.20
298;DHT22;133;49.626;9.680;2023-11-22T01:36:14;5.50;92.00
298;DHT22;133;49.626;9.680;2023-11-22T01:38:40;5.50;91.80
298;DHT22;133;49.626;9.680;2023-11-22T01:41:06;5.60;91.60
298;DHT22;133;49.626;9.680;2023-11-22T01:43:32;5.70;91.60
298;DHT22;133;49.626;9.680;2023-11-22T01:45:58;5.70;91.40
298;DHT22;133;49.626;9.680;2023-11-22T01:48:23;5.50;90.90
298;DHT22;133;49.626;9.680;2023-11-22T01:50:50;5.60;91.20
298;DHT22;133;49.626;9.680;2023-11-22T01:53:16;5.60;90.90
298;DHT22;133;49.626;9.680;2023-11-22T01:55:43;5.60;90.90
298;DHT22;133;49.626;9.680;2023-11-22T01:58:10;5.60;91.00
298;DHT22;133;49.626;9.680;2023-11-22T02:00:50;5.60;90.80
298;DHT22;133;49.626;9.680;2023-11-22T02:03:17;5.50;91.20
298;DHT22;133;49.626;9.680;2023-11-22T02:05:43;5.70;90.70
298;DHT22;133;49.626;9.680;2023-11-22T02:08:10;5.70;90.40
298;DHT22;133;49.626;9.680;2023-11-22T02:10:36;5.70;90.10
298;DHT22;133;49.626;9.680;2023-11-22T02:13:03;5.70;90.00
298;DHT22;133;49.626;9.680;2023-11-22T02:15:34;5.70;89.70
298;DHT22;133;49.626;9.680;2023-11-22T02:18:00;5.70;90.00
298;DHT22;133;49.626;9.680;2023-11-22T02:20:25;5.70;89.50
298;DHT22;133;49.626;9.680;2023-11-22T02:22:51;5.70;89.70
298;DHT22;133;49.626;9.680;2023-11-22T02:25:18;5.70;89.60
298;DHT22;133;49.626;9.680;2023-11-22T02:27:44;5.50;89.60
298;DHT22;133;49.626;9.680;2023-11-22T02:30:10;5.50;89.50
298;DHT22;133;49.626;9.680;2023-11-22T02:32:36;5.40;90.20
298;DHT22;133;49.626;9.680;2023-11-22T02:35:02;5.40;90.00
298;DHT22;133;49.626;9.680;2023-11-22T02:37:32;5.20;89.90
298;DHT22;133;49.626;9.680;2023-11-22T02:40:05;5.30;89.60
298;DHT22;133;49.626;9.680;2023-11-22T02:42:33;5.20;88.90
298;DHT22;133;49.626;9.680;2023-11-22T02:44:59;5.30;89.40
298;DHT22;133;49.626;9.680;2023-11-22T02:47:24;5.20;90.00
298;DHT22;133;49.626;9.680;2023-11-22T02:49:50;5.20;90.00
298;DHT22;133;49.626;9.680;2023-11-22T02:52:15;5.20;90.30
298;DHT22;133;49.626;9.680;2023-11-22T02:54:44;5.10;90.20
298;DHT22;133;49.626;9.680;2023-11-22T02:57:12;5.00;90.80
298;DHT22;133;49.626;9.680;2023-11-22T02:59:44;5.00;90.20
298;DHT22;133;49.626;9.680;2023-11-22T03:02:10;5.00;90.50
298;DHT22;133;49.626;9.680;2023-11-22T03:04:37;5.10;89.60
298;DHT22;133;49.626;9.680;2023-11-22T03:07:02;5.00;89.40
298;DHT22;133;49.626;9.680;2023-11-22T03:09:28;5.10;89.40
298;DHT22;133;49.626;9.680;2023-11-22T03:11:55;5.10;89.00
298;DHT22;133;49.626;9.680;2023-11-22T03:14:20;5.20;88.60
298;DHT22;133;49.626;9.680;2023-11-22T03:16:47;5.20;88.00
298;DHT22;133;49.626;9.680;2023-11-22T03:19:13;5.20;87.30
298;DHT22;133;49.626;9.680;2023-11-22T03:21:39;5.20;86.90
298;DHT22;133;49.626;9.680;2023-11-22T03:24:09;5.30;85.70
298;DHT22;133;49.626;9.680;2023-11-22T03:26:35;5.30;85.80
298;DHT22;133;49.626;9.680;2023-11-22T03:29:01;5.20;85.70
298;DHT22;133;49.626;9.680;2023-11-22T03:31:29;5.20;85.20
298;DHT22;133;49.626;9.680;2023-11-22T03:33:56;5.10;85.40
298;DHT22;133;49.626;9.680;2023-11-22T03:36:22;5.10;85.00
298;DHT22;133;49.626;9.680;2023-11-22T03:38:48;5.20;85.40
298;DHT22;133;49.626;9.680;2023-11-22T03:41:14;5.10;84.80
298;DHT22;133;49.626;9.680;2023-11-22T03:43:40;5.20;85.00
298;DHT22;133;49.626;9.680;2023-11-22T03:46:05;5.20;84.00
298;DHT22;133;49.626;9.680;2023-11-22T03:48:31;5.00;84.80
298;DHT22;133;49.626;9.680;2023-11-22T03:50:57;4.90;85.10
298;DHT22;133;49.626;9.680;2023-11-22T03:53:22;4.90;83.60
298;DHT22;133;49.626;9.680;2023-11-22T03:55:52;4.90;84.60
298;DHT22;133;49.626;9.680;2023-11-22T03:58:18;5.00;84.90
298;DHT22;133;49.626;9.680;2023-11-22T04:00:43;5.10;84.70
298;DHT22;133;49.626;9.680;2023-11-22T04:03:09;5.00;84.10
298;DHT22;133;49.626;9.680;2023-11-22T04:05:34;5.00;84.30
298;DHT22;133;49.626;9.680;2023-11-22T04:08:01;4.90;83.40
298;DHT22;133;49.626;9.680;2023-11-22T04:10:26;4.70;83.10
298;DHT22;133;49.626;9.680;2023-11-22T04:12:52;4.70;83.70
298;DHT22;133;49.626;9.680;2023-11-22T04:15:18;4.70;83.80
298;DHT22;133;49.626;9.680;2023-11-22T04:17:43;4.70;83.40
298;DHT22;133;49.626;9.680;2023-11-22T04:20:09;4.60;83.30
298;DHT22;133;49.626;9.680;2023-11-22T04:22:36;4.60;83.40
298;DHT22;133;49.626;9.680;2023-11-22T04:25:02;4.30;83.40
298;DHT22;133;49.626;9.680;2023-11-22T04:27:28;4.40;83.10
298;DHT22;133;49.626;9.680;2023-11-22T04:29:53;4.30;83.70
298;DHT22;133;49.626;9.680;2023-11-22T04:32:20;4.20;83.20
298;DHT22;133;49.626;9.680;2023-11-22T04:34:47;3.90;82.30
298;DHT22;133;49.626;9.680;2023-11-22T04:37:13;3.80;83.50
298;DHT22;133;49.626;9.680;2023-11-22T04:39:38;3.70;83.90
298;DHT22;133;49.626;9.680;2023-11-22T04:42:04;3.60;84.00
298;DHT22;133;49.626;9.680;2023-11-22T04:44:30;3.50;84.10
298;DHT22;133;49.626;9.680;2023-11-22T04:46:56;3.40;84.50
298;DHT22;133;49.626;9.680;2023-11-22T04:49:22;3.40;84.50
298;DHT22;133;49.626;9.680;2023-11-22T04:51:47;3.30;84.80
298;DHT22;133;49.626;9.680;2023-11-22T04:54:14;3.30;84.70
298;DHT22;133;49.626;9.680;2023-11-22T04:56:40;3.30;84.50
298;DHT22;133;49.626;9.680;2023-11-22T04:59:05;3.30;84.20
298;DHT22;133;49.626;9.680;2023-11-22T05:01:32;3.20;85.20
298;DHT22;133;49.626;9.680;2023-11-22T05:03:58;3.20;84.40
298;DHT22;133;49.626;9.680;2023-11-22T05:06:24;3.00;84.30
298;DHT22;133;49.626;9.680;2023-11-22T05:08:51;3.00;85.00
298;DHT22;133;49.626;9.680;2023-11-22T05:11:17;3.00;84.90
298;DHT22;133;49.626;9.680;2023-11-22T05:13:42;3.00;84.90
298;DHT22;133;49.626;9.680;2023-11-22T05:16:09;3.10;85.00
298;DHT22;133;49.626;9.680;2023-11-22T05:18:35;3.00;85.10
298;DHT22;133;49.626;9.680;2023-11-22T05:21:04;3.00;85.50
298;DHT22;133;49.626;9.680;2023-11-22T05:23:30;2.90;84.80
298;DHT22;133;49.626;9.680;2023-11-22T05:25:59;3.00;85.00
298;DHT22;133;49.626;9.680;2023-11-22T05:28:25;3.00;84.70
298;DHT22;133;49.626;9.680;2023-11-22T05:30:51;2.90;85.00
298;DHT22;133;49.626;9.680;2023-11-22T05:33:17;3.00;85.60
298;DHT22;133;49.626;9.680;2023-11-22T05:35:42;3.10;84.70
298;DHT22;133;49.626;9.680;2023-11-22T05:38:08;3.00;84.80
298;DHT22;133;49.626;9.680;2023-11-22T05:40:34;2.90;84.20
298;DHT22;133;49.626;9.680;2023-11-22T05:42:59;3.00;84.80
298;DHT22;133;49.626;9.680;2023-11-22T05:45:25;2.90;84.50
298;DHT22;133;49.626;9.680;2023-11-22T05:47:51;2.90;84.40
298;DHT22;133;49.626;9.680;2023-11-22T05:50:17;2.90;84.40
298;DHT22;133;49.626;9.680;2023-11-22T05:52:43;2.80;84.40
298;DHT22;133;49.626;9.680;2023-11-22T05:55:10;2.90;85.10
298;DHT22;133;49.626;9.680;2023-11-22T05:57:36;2.90;85.00
298;DHT22;133;49.626;9.680;2023-11-22T06:00:02;2.80;84.60
298;DHT22;133;49.626;9.680;2023-11-22T06:02:28;2.90;85.10
298;DHT22;133;49.626;9.680;2023-11-22T06:04:53;2.90;84.70
298;DHT22;133;49.626;9.680;2023-11-22T06:07:19;2.80;85.00
298;DHT22;133;49.626;9.680;2023-11-22T06:09:44;2.90;84.60
298;DHT22;133;49.626;9.680;2023-11-22T06:12:10;2.90;84.10
298;DHT22;133;49.626;9.680;2023-11-22T06:14:35;3.00;84.70
298;DHT22;133;49.626;9.680;2023-11-22T06:17:01;2.90;83.70
298;DHT22;133;49.626;9.680;2023-11-22T06:19:28;3.00;84.20
298;DHT22;133;49.626;9.680;2023-11-22T06:21:54;3.00;84.50
298;DHT22;133;49.626;9.680;2023-11-22T06:24:19;3.00;85.00
298;DHT22;133;49.626;9.680;2023-11-22T06:26:45;3.10;83.90
298;DHT22;133;49.626;9.680;2023-11-22T06:29:15;3.10;83.70
298;DHT22;133;49.626;9.680;2023-11-22T06:31:40;3.20;83.40
298;DHT22;133;49.626;9.680;2023-11-22T06:34:06;3.10;82.90
298;DHT22;133;49.626;9.680;2023-11-22T06:36:31;3.20;83.10
298;DHT22;133;49.626;9.680;2023-11-22T06:38:58;3.20;81.80
298;DHT22;133;49.626;9.680;2023-11-22T06:41:24;3.10;81.80
298;DHT22;133;49.626;9.680;2023-11-22T06:43:51;3.00;82.10
298;DHT22;133;49.626;9.680;2023-11-22T06:46:16;2.90;82.40
298;DHT22;133;49.626;9.680;2023-11-22T06:48:42;3.00;82.40
298;DHT22;133;49.626;9.680;2023-11-22T06:51:14;3.00;82.90
298;DHT22;133;49.626;9.680;2023-11-22T06:53:39;3.00;82.40
298;DHT22;133;49.626;9.680;2023-11-22T06:56:06;3.10;81.60
298;DHT22;133;49.626;9.680;2023-11-22T06:58:31;3.10;81.60
298;DHT22;133;49.626;9.680;2023-11-22T07:00:57;3.20;81.10
298;DHT22;133;49.626;9.680;2023-11-22T07:03:23;3.10;81.20
298;DHT22;133;49.626;9.680;2023-11-22T07:05:48;3.10;80.90
298;DHT22;133;49.626;9.680;2023-11-22T07:08:14;3.10;80.70
298;DHT22;133;49.626;9.680;2023-11-22T07:10:42;3.20;80.70
298;DHT22;133;49.626;9.680;2023-11-22T07:13:08;3.20;81.40
298;DHT22;133;49.626;9.680;2023-11-22T07:15:33;3.40;81.60
298;DHT22;133;49.626;9.680;2023-11-22T07:17:59;3.50;81.20
298;DHT22;133;49.626;9.680;2023-11-22T07:20:24;3.40;80.00
298;DHT22;133;49.626;9.680;2023-11-22T07:22:52;3.40;80.20
298;DHT22;133;49.626;9.680;2023-11-22T07:25:21;3.40;80.20
298;DHT22;133;49.626;9.680;2023-11-22T07:27:50;3.50;80.10
298;DHT22;133;49.626;9.680;2023-11-22T07:30:16;3.50;80.90
298;DHT22;133;49.626;9.680;2023-11-22T07:32:44;3.40;80.60
298;DHT22;133;49.626;9.680;2023-11-22T07:35:10;3.40;80.80
298;DHT22;133;49.626;9.680;2023-11-22T07:37:37;3.40;80.30
298;DHT22;133;49.626;9.680;2023-11-22T07:40:06;3.50;81.00
298;DHT22;133;49.626;9.680;2023-11-22T07:42:33;3.30;80.40
298;DHT22;133;49.626;9.680;2023-11-22T07:44:59;3.30;80.80
298;DHT22;133;49.626;9.680;2023-11-22T07:47:25;3.20;80.90
298;DHT22;133;49.626;9.680;2023-11-22T07:49:51;3.20;81.40
298;DHT22;133;49.626;9.680;2023-11-22T07:52:17;3.10;81.90
298;DHT22;133;49.626;9.680;2023-11-22T07:54:43;3.30;81.20
298;DHT22;133;49.626;9.680;2023-11-22T07:57:10;3.40;81.00
298;DHT22;133;49.626;9.680;2023-11-22T07:59:35;3.40;80.70
298;DHT22;133;49.626;9.680;2023-11-22T08:02:02;3.60;81.00
298;DHT22;133;49.626;9.680;2023-11-22T08:04:28;3.50;79.50
298;DHT22;133;49.626;9.680;2023-11-22T08:06:54;3.50;80.00
298;DHT22;133;49.626;9.680;2023-11-22T08:09:22;3.50;80.10
298;DHT22;133;49.626;9.680;2023-11-22T08:11:48;3.60;79.80
298;DHT22;133;49.626;9.680;2023-11-22T08:14:15;3.60;79.60
298;DHT22;133;49.626;9.680;2023-11-22T08:16:40;3.50;80.10
298;DHT22;133;49.626;9.680;2023-11-22T08:19:10;3.40;79.40
298;DHT22;133;49.626;9.680;2023-11-22T08:21:37;3.40;80.40
298;DHT22;133;49.626;9.680;2023-11-22T08:24:04;3.40;80.70
298;DHT22;133;49.626;9.680;2023-11-22T08:26:30;3.50;80.30
298;DHT22;133;49.626;9.680;2023-11-22T08:28:56;3.70;80.10
298;DHT22;133;49.626;9.680;2023-11-22T08:31:22;3.80;80.30
298;DHT22;133;49.626;9.680;2023-11-22T08:33:47;3.60;79.50
298;DHT22;133;49.626;9.680;2023-11-22T08:36:13;3.70;80.20
298;DHT22;133;49.626;9.680;2023-11-22T08:38:38;3.70;80.90
298;DHT22;133;49.626;9.680;2023-11-22T08:41:08;3.70;81.20
298;DHT22;133;49.626;9.680;2023-11-22T08:43:38;3.70;80.20
298;DHT22;133;49.626;9.680;2023-11-22T08:46:04;3.70;80.90
298;DHT22;133;49.626;9.680;2023-11-22T08:48:31;3.70;80.30
298;DHT22;133;49.626;9.680;2023-11-22T08:50:57;3.60;79.80
298;DHT22;133;49.626;9.680;2023-11-22T08:53:23;3.60;80.20
298;DHT22;133;49.626;9.680;2023-11-22T08:55:49;3.60;80.30
298;DHT22;133;49.626;9.680;2023-11-22T08:58:15;3.70;80.50
298;DHT22;133;49.626;9.680;2023-11-22T09:00:41;3.60;80.60
298;DHT22;133;49.626;9.680;2023-11-22T09:03:08;3.70;80.80
298;DHT22;133;49.626;9.680;2023-11-22T09:05:33;3.70;80.60
298;DHT22;133;49.626;9.680;2023-11-22T09:07:59;3.90;80.60
298;DHT22;133;49.626;9.680;2023-11-22T09:10:25;3.70;79.60
298;DHT22;133;49.626;9.680;2023-11-22T09:12:52;3.70;80.50
298;DHT22;133;49.626;9.680;2023-11-22T09:15:18;3.70;81.40
298;DHT22;133;49.626;9.680;2023-11-22T09:17:49;3.80;81.00
298;DHT22;133;49.626;9.680;2023-11-22T09:20:16;4.00;80.60
298;DHT22;133;49.626;9.680;2023-11-22T09:22:46;4.20;80.30
298;DHT22;133;49.626;9.680;2023-11-22T09:25:20;4.20;79.20
298;DHT22;133;49.626;9.680;2023-11-22T09:27:47;4.30;79.60
298;DHT22;133;49.626;9.680;2023-11-22T09:30:15;4.30;79.30
298;DHT22;133;49.626;9.680;2023-11-22T09:32:45;4.40;79.20
298;DHT22;133;49.626;9.680;2023-11-22T09:35:12;4.60;78.90
298;DHT22;133;49.626;9.680;2023-11-22T09:37:39;4.60;78.90
298;DHT22;133;49.626;9.680;2023-11-22T09:40:08;4.70;78.70
298;DHT22;133;49.626;9.680;2023-11-22T09:42:34;4.60;79.00
298;DHT22;133;49.626;9.680;2023-11-22T09:45:00;4.60;78.30
298;DHT22;133;49.626;9.680;2023-11-22T09:47:28;4.70;78.50
298;DHT22;133;49.626;9.680;2023-11-22T09:49:57;4.60;78.10
298;DHT22;133;49.626;9.680;2023-11-22T09:52:24;4.70;78.40
298;DHT22;133;49.626;9.680;2023-11-22T09:54:53;4.70;78.40
298;DHT22;133;49.626;9.680;2023-11-22T09:57:20;4.60;78.40
298;DHT22;133;49.626;9.680;2023-11-22T09:59:46;4.60;78.30
298;DHT22;133;49.626;9.680;2023-11-22T10:02:15;4.60;78.40
298;DHT22;133;49.626;9.680;2023-11-22T10:04:41;4.70;78.30
298;DHT22;133;49.626;9.680;2023-11-22T10:07:07;4.50;78.40
298;DHT22;133;49.626;9.680;2023-11-22T10:09:34;4.60;79.20
298;DHT22;133;49.626;9.680;2023-11-22T10:12:03;4.70;78.80
298;DHT22;133;49.626;9.680;2023-11-22T10:14:30;4.80;78.60
298;DHT22;133;49.626;9.680;2023-11-22T10:17:00;5.00;77.90
298;DHT22;133;49.626;9.680;2023-11-22T10:19:26;4.90;77.60
298;DHT22;133;49.626;9.680;2023-11-22T10:22:06;4.90;77.20
298;DHT22;133;49.626;9.680;2023-11-22T10:24:33;4.90;77.70
298;DHT22;133;49.626;9.680;2023-11-22T10:27:02;4.80;77.80
298;DHT22;133;49.626;9.680;2023-11-22T10:29:28;4.90;77.80
298;DHT22;133;49.626;9.680;2023-11-22T10:31:54;5.00;77.30
298;DHT22;133;49.626;9.680;2023-11-22T10:34:24;4.90;77.80
298;DHT22;133;49.626;9.680;2023-11-22T10:36:50;5.20;77.80
298;DHT22;133;49.626;9.680;2023-11-22T10:39:21;5.10;76.60
298;DHT22;133;49.626;9.680;2023-11-22T10:41:47;5.20;76.00
298;DHT22;133;49.626;9.680;2023-11-22T10:44:14;5.30;76.10
298;DHT22;133;49.626;9.680;2023-11-22T10:46:41;5.30;75.20
298;DHT22;133;49.626;9.680;2023-11-22T10:49:06;5.20;75.50
298;DHT22;133;49.626;9.680;2023-11-22T10:51:33;5.10;75.80
298;DHT22;133;49.626;9.680;2023-11-22T10:54:00;5.30;76.00
298;DHT22;133;49.626;9.680;2023-11-22T10:56:27;5.40;76.50
298;DHT22;133;49.626;9.680;2023-11-22T10:58:56;5.30;75.90
298;DHT22;133;49.626;9.680;2023-11-22T11:01:26;5.30;75.70
298;DHT22;133;49.626;9.680;2023-11-22T11:04:11;5.10;76.70
298;DHT22;133;49.626;9.680;2023-11-22T11:06:42;5.00;75.90
298;DHT22;133;49.626;9.680;2023-11-22T11:09:08;4.90;76.00
298;DHT22;133;49.626;9.680;2023-11-22T11:11:35;4.80;76.00
298;DHT22;133;49.626;9.680;2023-11-22T11:14:02;4.80;76.00
298;DHT22;133;49.626;9.680;2023-11-22T11:16:30;4.90;76.00
298;DHT22;133;49.626;9.680;2023-11-22T11:18:59;4.80;76.70
298;DHT22;133;49.626;9.680;2023-11-22T11:21:25;5.00;77.00
298;DHT22;133;49.626;9.680;2023-11-22T11:23:55;5.20;75.90
298;DHT22;133;49.626;9.680;2023-11-22T11:26:25;5.20;75.60
298;DHT22;133;49.626;9.680;2023-11-22T11:28:51;5.20;75.80
298;DHT22;133;49.626;9.680;2023-11-22T11:31:21;5.30;75.70
298;DHT22;133;49.626;9.680;2023-11-22T11:38:48;5.50;75.00
298;DHT22;133;49.626;9.680;2023-11-22T11:41:15;5.50;75.10
298;DHT22;133;49.626;9.680;2023-11-22T11:46:13;5.50;74.70
298;DHT22;133;49.626;9.680;2023-11-22T11:48:43;5.50;73.60
298;DHT22;133;49.626;9.680;2023-11-22T11:51:09;5.50;73.60
298;DHT22;133;49.626;9.680;2023-11-22T11:53:34;5.40;74.00
298;DHT22;133;49.626;9.680;2023-11-22T11:56:01;5.30;74.90
298;DHT22;133;49.626;9.680;2023-11-22T11:58:27;5.20;74.40
298;DHT22;133;49.626;9.680;2023-11-22T12:00:54;5.10;75.30
298;DHT22;133;49.626;9.680;2023-11-22T12:03:20;5.10;74.40
298;DHT22;133;49.626;9.680;2023-11-22T12:05:47;5.20;74.90
298;DHT22;133;49.626;9.680;2023-11-22T12:08:14;5.00;75.00
298;DHT22;133;49.626;9.680;2023-11-22T12:10:45;4.90;76.00
298;DHT22;133;49.626;9.680;2023-11-22T12:13:21;4.80;76.40
298;DHT22;133;49.626;9.680;2023-11-22T12:15:51;4.70;76.50
298;DHT22;133;49.626;9.680;2023-11-22T12:18:19;4.90;75.90
298;DHT22;133;49.626;9.680;2023-11-22T12:21:00;4.90;75.80
298;DHT22;133;49.626;9.680;2023-11-22T12:23:27;4.80;76.30
298;DHT22;133;49.626;9.680;2023-11-22T12:26:01;4.80;76.50
298;DHT22;133;49.626;9.680;2023-11-22T12:28:28;4.70;76.40
298;DHT22;133;49.626;9.680;2023-11-22T12:30:54;4.70;76.90
298;DHT22;133;49.626;9.680;2023-11-22T12:33:20;4.80;77.10
298;DHT22;133;49.626;9.680;2023-11-22T12:35:46;4.80;77.00
298;DHT22;133;49.626;9.680;2023-11-22T12:38:13;4.80;77.20
298;DHT22;133;49.626;9.680;2023-11-22T12:40:44;4.70;76.80
298;DHT22;133;49.626;9.680;2023-11-22T12:43:12;4.70;76.60
298;DHT22;133;49.626;9.680;2023-11-22T12:45:39;4.70;76.60
298;DHT22;133;49.626;9.680;2023-11-22T12:48:24;4.80;76.20
298;DHT22;133;49.626;9.680;2023-11-22T12:50:51;4.80;77.00
298;DHT22;133;49.626;9.680;2023-11-22T12:53:17;4.90;76.70
298;DHT22;133;49.626;9.680;2023-11-22T12:55:48;4.90;76.30
298;DHT22;133;49.626;9.680;2023-11-22T12:58:18;5.00;76.70
298;DHT22;133;49.626;9.680;2023-11-22T13:00:45;4.90;76.70
298;DHT22;133;49.626;9.680;2023-11-22T13:03:11;4.80;76.50
298;DHT22;133;49.626;9.680;2023-11-22T13:05:44;4.80;76.20
298;DHT22;133;49.626;9.680;2023-11-22T13:08:13;4.70;76.60
298;DHT22;133;49.626;9.680;2023-11-22T13:10:43;4.70;76.40
298;DHT22;133;49.626;9.680;2023-11-22T13:13:08;4.70;77.00
298;DHT22;133;49.626;9.680;2023-11-22T13:15:34;4.90;77.00
298;DHT22;133;49.626;9.680;2023-11-22T13:18:00;5.00;76.60
298;DHT22;133;49.626;9.680;2023-11-22T13:20:26;5.00;76.70
298;DHT22;133;49.626;9.680;2023-11-22T13:22:52;5.10;76.20
298;DHT22;133;49.626;9.680;2023-11-22T13:25:19;5.00;76.10
298;DHT22;133;49.626;9.680;2023-11-22T13:27:48;4.90;75.60
298;DHT22;133;49.626;9.680;2023-11-22T13:30:17;5.00;74.90
298;DHT22;133;49.626;9.680;2023-11-22T13:32:46;4.90;75.00
298;DHT22;133;49.626;9.680;2023-11-22T13:35:12;4.80;75.50
298;DHT22;133;49.626;9.680;2023-11-22T13:37:45;4.80;76.20
298;DHT22;133;49.626;9.680;2023-11-22T13:40:13;4.50;74.90
298;DHT22;133;49.626;9.680;2023-11-22T13:42:44;4.70;75.40
298;DHT22;133;49.626;9.680;2023-11-22T13:45:11;4.80;75.40
298;DHT22;133;49.626;9.680;2023-11-22T13:47:43;4.80;74.30
298;DHT22;133;49.626;9.680;2023-11-22T13:50:17;4.70;74.60
298;DHT22;133;49.626;9.680;2023-11-22T13:52:50;4.80;74.40
298;DHT22;133;49.626;9.680;2023-11-22T13:55:17;4.70;74.50
298;DHT22;133;49.626;9.680;2023-11-22T13:57:48;4.70;74.80
298;DHT22;133;49.626;9.680;2023-11-22T14:00:13;4.70;75.00
298;DHT22;133;49.626;9.680;2023-11-22T14:02:48;4.90;75.90
298;DHT22;133;49.626;9.680;2023-11-22T14:05:13;4.90;75.80
298;DHT22;133;49.626;9.680;2023-11-22T14:07:41;5.00;75.40
298;DHT22;133;49.626;9.680;2023-11-22T14:10:07;4.70;76.20
298;DHT22;133;49.626;9.680;2023-11-22T14:12:33;4.70;75.80
298;DHT22;133;49.626;9.680;2023-11-22T14:14:59;4.80;75.50
298;DHT22;133;49.626;9.680;2023-11-22T14:17:25;4.80;75.70
298;DHT22;133;49.626;9.680;2023-11-22T14:19:52;4.80;75.30
298;DHT22;133;49.626;9.680;2023-11-22T14:22:19;4.70;75.90
298;DHT22;133;49.626;9.680;2023-11-22T14:24:46;4.80;75.80
298;DHT22;133;49.626;9.680;2023-11-22T14:27:12;4.80;75.50
298;DHT22;133;49.626;9.680;2023-11-22T14:29:38;4.90;75.70
298;DHT22;133;49.626;9.680;2023-11-22T14:32:04;5.00;76.90
298;DHT22;133;49.626;9.680;2023-11-22T14:34:29;5.00;76.50
298;DHT22;133;49.626;9.680;2023-11-22T14:36:55;5.00;74.30
298;DHT22;133;49.626;9.680;2023-11-22T14:39:21;5.00;75.00
298;DHT22;133;49.626;9.680;2023-11-22T14:41:47;4.90;75.50
298;DHT22;133;49.626;9.680;2023-11-22T14:44:12;5.00;75.00
298;DHT22;133;49.626;9.680;2023-11-22T14:46:38;4.90;74.20
298;DHT22;133;49.626;9.680;2023-11-22T14:49:04;4.90;75.10
298;DHT22;133;49.626;9.680;2023-11-22T14:51:30;4.90;74.90
298;DHT22;133;49.626;9.680;2023-11-22T14:53:56;4.80;74.90
298;DHT22;133;49.626;9.680;2023-11-22T14:56:22;4.80;74.80
298;DHT22;133;49.626;9.680;2023-11-22T14:58:48;4.70;75.10
298;DHT22;133;49.626;9.680;2023-11-22T15:01:19;4.70;74.80
298;DHT22;133;49.626;9.680;2023-11-22T15:03:46;4.70;75.20
298;DHT22;133;49.626;9.680;2023-11-22T15:06:13;4.60;74.90
298;DHT22;133;49.626;9.680;2023-11-22T15:08:38;4.60;75.70
298;DHT22;133;49.626;9.680;2023-11-22T15:11:04;4.60;76.10
298;DHT22;133;49.626;9.680;2023-11-22T15:13:30;4.60;76.00
298;DHT22;133;49.626;9.680;2023-11-22T15:15:56;4.60;75.40
298;DHT22;133;49.626;9.680;2023-11-22T15:18:22;4.70;75.30
298;DHT22;133;49.626;9.680;2023-11-22T15:20:50;4.70;75.40
298;DHT22;133;49.626;9.680;2023-11-22T15:23:15;4.70;76.00
298;DHT22;133;49.626;9.680;2023-11-22T15:25:41;4.70;75.70
298;DHT22;133;49.626;9.680;2023-11-22T15:28:07;4.70;75.40
298;DHT22;133;49.626;9.680;2023-11-22T15:30:34;4.60;75.90
298;DHT22;133;49.626;9.680;2023-11-22T15:33:00;4.50;75.90
298;DHT22;133;49.626;9.680;2023-11-22T15:35:27;4.50;75.90
298;DHT22;133;49.626;9.680;2023-11-22T15:37:53;4.30;75.70
298;DHT22;133;49.626;9.680;2023-11-22T15:40:18;4.20;75.90
298;DHT22;133;49.626;9.680;2023-11-22T15:42:45;4.20;75.80
298;DHT22;133;49.626;9.680;2023-11-22T15:45:11;4.20;76.40
298;DHT22;133;49.626;9.680;2023-11-22T15:47:38;4.10;76.90
298;DHT22;133;49.626;9.680;2023-11-22T15:50:04;3.90;75.70
298;DHT22;133;49.626;9.680;2023-11-22T15:52:34;3.90;76.10
298;DHT22;133;49.626;9.680;2023-11-22T15:54:59;3.80;76.30
298;DHT22;133;49.626;9.680;2023-11-22T15:57:25;3.90;76.20
298;DHT22;133;49.626;9.680;2023-11-22T15:59:51;4.10;76.80
298;DHT22;133;49.626;9.680;2023-11-22T16:02:17;4.10;77.50
298;DHT22;133;49.626;9.680;2023-11-22T16:04:43;4.20;76.80
298;DHT22;133;49.626;9.680;2023-11-22T16:07:10;4.10;76.20
298;DHT22;133;49.626;9.680;2023-11-22T16:09:35;4.00;76.80
298;DHT22;133;49.626;9.680;2023-11-22T16:12:04;3.90;76.30
298;DHT22;133;49.626;9.680;2023-11-22T16:14:29;4.00;76.40
298;DHT22;133;49.626;9.680;2023-11-22T16:16:55;4.00;76.30
298;DHT22;133;49.626;9.680;2023-11-22T16:19:21;3.90;76.10
298;DHT22;133;49.626;9.680;2023-11-22T16:21:47;4.00;76.30
298;DHT22;133;49.626;9.680;2023-11-22T16:24:12;3.90;76.10
298;DHT22;133;49.626;9.680;2023-11-22T16:26:38;3.90;76.40
298;DHT22;133;49.626;9.680;2023-11-22T16:29:03;3.90;76.80
298;DHT22;133;49.626;9.680;2023-11-22T16:31:29;3.80;76.80
298;DHT22;133;49.626;9.680;2023-11-22T16:33:55;3.80;76.90
298;DHT22;133;49.626;9.680;2023-11-22T16:36:22;4.00;76.70
298;DHT22;133;49.626;9.680;2023-11-22T16:38:49;3.90;76.40
298;DHT22;133;49.626;9.680;2023-11-22T16:41:14;4.00;76.40
298;DHT22;133;49.626;9.680;2023-11-22T16:43:40;3.90;76.40
298;DHT22;133;49.626;9.680;2023-11-22T16:46:06;3.70;76.90
298;DHT22;133;49.626;9.680;2023-11-22T16:48:31;3.70;77.40
298;DHT22;133;49.626;9.680;2023-11-22T16:50:57;3.80;77.50
298;DHT22;133;49.626;9.680;2023-11-22T16:53:22;3.80;77.60
298;DHT22;133;49.626;9.680;2023-11-22T16:55:48;3.80;77.70